Time;durP1;ratioP1;P1;durP2;ratioP2;P2;SDS_P1;SDS_P2;PMS_P1;PMS_P2;Temp;Humidity;BMP_temperature;BMP_pressure;BME280_temperature;BME280_humidity;BME280_pressure;Samples;Min_cycle;Max_cycle;Signal;HPM_P1;HPM_P2
2023/02/20 00:00:40;;;;;;;9.10;6.88;;;6.40;99.90;;;;;;5014186;28;20639;-65
2023/02/20 00:03:07;;;;;;;8.55;6.38;;;6.40;99.90;;;;;;5014912;28;20580;-67
2023/02/20 00:05:34;;;;;;;7.78;6.00;;;6.40;99.90;;;;;;5020224;28;20202;-66
2023/02/20 00:08:01;;;;;;;7.50;6.70;;;6.40;99.90;;;;;;5020536;28;20560;-65
2023/02/20 00:10:28;;;;;;;6.72;5.63;;;6.40;99.90;;;;;;5020690;28;20565;-66
2023/02/20 00:12:55;;;;;;;8.30;6.60;;;6.40;99.90;;;;;;5015890;28;20245;-67
2023/02/20 00:15:23;;;;;;;8.20;5.60;;;6.50;99.90;;;;;;5014961;28;20229;-67
2023/02/20 00:17:51;;;;;;;6.75;5.25;;;6.50;99.90;;;;;;5014289;28;20213;-67
2023/02/20 00:20:20;;;;;;;6.90;5.30;;;6.50;99.90;;;;;;5014936;28;20199;-67
2023/02/20 00:22:47;;;;;;;6.72;5.55;;;6.60;99.90;;;;;;5014381;28;20211;-66
2023/02/20 00:25:16;;;;;;;5.85;4.68;;;6.60;99.90;;;;;;5016373;28;20220;-67
2023/02/20 00:27:43;;;;;;;5.47;4.95;;;6.60;99.90;;;;;;5017261;28;20203;-66
2023/02/20 00:30:15;;;;;;;6.47;5.88;;;6.60;99.90;;;;;;5018346;28;20294;-66
2023/02/20 00:32:41;;;;;;;6.45;5.25;;;6.60;99.90;;;;;;5019307;28;20222;-66
2023/02/20 00:35:11;;;;;;;6.68;5.90;;;6.60;99.90;;;;;;5017872;28;20580;-67
2023/02/20 00:37:38;;;;;;;6.43;5.28;;;6.60;99.90;;;;;;5017695;28;20207;-66
2023/02/20 00:40:07;;;;;;;5.60;4.30;;;6.60;99.90;;;;;;5017434;28;20340;-67
2023/02/20 00:42:34;;;;;;;6.70;5.45;;;6.60;99.90;;;;;;5018154;28;20234;-67
2023/02/20 00:45:01;;;;;;;7.43;5.20;;;6.60;99.90;;;;;;5018124;28;20210;-66
2023/02/20 00:47:27;;;;;;;4.90;4.40;;;6.60;99.90;;;;;;5017223;28;20195;-67
2023/02/20 00:49:54;;;;;;;7.00;5.68;;;6.60;99.90;;;;;;5017171;28;20202;-67
2023/02/20 00:52:22;;;;;;;5.90;4.80;;;6.70;99.90;;;;;;5017011;28;20307;-67
2023/02/20 00:54:49;;;;;;;12.35;5.68;;;6.60;99.90;;;;;;5017389;28;20207;-66
2023/02/20 00:57:16;;;;;;;7.53;6.00;;;6.70;99.90;;;;;;5017069;28;20233;-67
2023/02/20 00:59:43;;;;;;;6.25;5.43;;;6.70;99.90;;;;;;5016893;28;20222;-67
2023/02/20 01:02:09;;;;;;;6.90;5.35;;;6.70;99.90;;;;;;5016929;28;20229;-66
2023/02/20 01:04:36;;;;;;;5.90;5.30;;;6.60;99.90;;;;;;5020765;28;20198;-66
2023/02/20 01:07:03;;;;;;;6.68;6.07;;;6.70;99.90;;;;;;5026854;28;20203;-66
2023/02/20 01:09:31;;;;;;;6.30;5.13;;;6.60;99.90;;;;;;5017039;28;20207;-67
2023/02/20 01:11:58;;;;;;;6.97;5.43;;;6.70;99.90;;;;;;5017237;28;20230;-66
2023/02/20 01:14:25;;;;;;;7.28;6.20;;;6.70;99.90;;;;;;5016721;28;20207;-67
2023/02/20 01:16:53;;;;;;;5.60;5.10;;;6.60;99.90;;;;;;5016390;28;20222;-67
2023/02/20 01:19:21;;;;;;;7.93;5.72;;;6.60;99.90;;;;;;5016997;28;20207;-66
2023/02/20 01:21:48;;;;;;;6.35;4.70;;;6.70;99.90;;;;;;5017018;28;20230;-67
2023/02/20 01:24:15;;;;;;;6.50;5.90;;;6.70;99.90;;;;;;5016673;28;20570;-66
2023/02/20 01:26:44;;;;;;;7.75;5.20;;;6.70;99.90;;;;;;5017031;28;20199;-66
2023/02/20 01:29:11;;;;;;;6.30;5.65;;;6.70;99.90;;;;;;5016700;28;20551;-65
2023/02/20 01:31:38;;;;;;;5.30;4.70;;;6.70;99.90;;;;;;5016564;28;20230;-66
2023/02/20 01:34:05;;;;;;;7.25;4.90;;;6.70;99.90;;;;;;5016510;28;20202;-67
2023/02/20 01:36:33;;;;;;;6.78;5.43;;;6.70;99.90;;;;;;5016265;28;20698;-67
2023/02/20 01:38:59;;;;;;;5.50;4.88;;;6.70;99.90;;;;;;5015843;28;20206;-66
2023/02/20 01:41:26;;;;;;;5.90;4.57;;;6.70;99.90;;;;;;5016042;28;20234;-67
2023/02/20 01:43:54;;;;;;;5.90;5.22;;;6.70;99.90;;;;;;5016040;28;20690;-67
2023/02/20 01:46:57;;;;;;;5.70;4.38;;;6.60;99.90;;;;;;5016014;28;20690;-67
2023/02/20 01:49:32;;;;;;;6.53;4.13;;;6.60;99.90;;;;;;5017390;28;20191;-67
2023/02/20 01:52:05;;;;;;;4.30;3.90;;;6.60;99.90;;;;;;5018044;28;20229;-66
2023/02/20 01:54:33;;;;;;;5.93;5.00;;;6.60;99.90;;;;;;5016101;28;20188;-66
2023/02/20 01:57:03;;;;;;;7.07;5.38;;;6.50;99.90;;;;;;5015805;28;20226;-66
2023/02/20 01:59:34;;;;;;;6.00;5.10;;;6.50;99.90;;;;;;5015595;28;20564;-67
2023/02/20 02:02:01;;;;;;;4.63;4.22;;;6.50;99.90;;;;;;5015867;28;20307;-65
2023/02/20 02:04:29;;;;;;;5.53;4.63;;;6.40;99.90;;;;;;5015826;28;20207;-66
2023/02/20 02:06:56;;;;;;;6.00;4.80;;;6.40;99.90;;;;;;5015788;28;20608;-66
2023/02/20 02:09:38;;;;;;;6.60;4.90;;;6.40;99.90;;;;;;5015852;28;20206;-67
2023/02/20 02:12:05;;;;;;;6.25;5.63;;;6.30;99.90;;;;;;5016756;28;20542;-67
2023/02/20 02:14:33;;;;;;;6.10;5.50;;;6.30;99.90;;;;;;5015760;28;20210;-66
2023/02/20 02:17:21;;;;;;;6.50;5.47;;;6.20;99.90;;;;;;5015912;28;20236;-67
2023/02/20 02:20:26;;;;;;;5.93;5.32;;;6.20;99.90;;;;;;5015653;28;20194;-67
2023/02/20 02:23:44;;;;;;;6.97;6.13;;;6.20;99.90;;;;;;5015365;28;20206;-67
2023/02/20 02:26:33;;;;;;;7.03;6.32;;;6.10;99.90;;;;;;4993503;28;20202;-67
2023/02/20 02:29:27;;;;;;;6.55;5.93;;;6.10;99.90;;;;;;5015289;28;20197;-67
2023/02/20 02:32:31;;;;;;;7.35;6.50;;;6.10;99.90;;;;;;5015240;28;20238;-66
2023/02/20 02:35:26;;;;;;;9.98;6.60;;;6.10;99.90;;;;;;5003784;28;20205;-66
2023/02/20 02:38:07;;;;;;;6.57;5.72;;;6.00;99.90;;;;;;5015107;28;20223;-66
2023/02/20 02:40:41;;;;;;;8.57;7.00;;;6.00;99.90;;;;;;5015280;28;20183;-66
2023/02/20 02:43:14;;;;;;;8.32;6.95;;;6.00;99.90;;;;;;5015693;28;20536;-66
2023/02/20 02:45:46;;;;;;;8.38;7.35;;;6.00;99.90;;;;;;5025560;28;20191;-66
2023/02/20 02:48:19;;;;;;;10.10;7.47;;;6.00;99.90;;;;;;5015241;28;20190;-67
2023/02/20 02:50:48;;;;;;;9.98;7.95;;;6.00;99.90;;;;;;5014420;28;20574;-67
2023/02/20 02:53:17;;;;;;;9.63;8.50;;;6.00;99.90;;;;;;5014805;28;20203;-67
2023/02/20 02:55:44;;;;;;;8.00;7.20;;;6.00;99.90;;;;;;5015374;28;20652;-66
2023/02/20 02:58:12;;;;;;;9.43;7.07;;;6.10;99.90;;;;;;5015281;28;20219;-66
2023/02/20 03:00:42;;;;;;;8.88;7.18;;;6.10;99.90;;;;;;5015167;28;20230;-67
2023/02/20 03:03:12;;;;;;;9.00;7.03;;;6.20;99.90;;;;;;5015072;28;20207;-66
2023/02/20 03:05:46;;;;;;;8.93;7.43;;;6.20;99.90;;;;;;5014737;28;20201;-66
2023/02/20 03:08:29;;;;;;;10.82;7.57;;;6.30;99.90;;;;;;5014518;28;20246;-67
2023/02/20 03:10:57;;;;;;;7.47;6.60;;;6.30;99.90;;;;;;5014563;28;20713;-67
2023/02/20 03:16:12;;;;;;;7.72;6.75;;;6.30;99.90;;;;;;5015021;28;20233;-66
2023/02/20 03:18:40;;;;;;;9.70;7.32;;;6.40;99.90;;;;;;5014588;28;20207;-67
2023/02/20 03:21:15;;;;;;;8.68;6.50;;;6.40;99.90;;;;;;5014428;28;20253;-66
2023/02/20 03:23:49;;;;;;;8.93;7.82;;;6.50;99.90;;;;;;5014514;28;20202;-66
2023/02/20 03:26:21;;;;;;;9.98;7.50;;;6.50;99.90;;;;;;5014445;28;20187;-67
2023/02/20 03:28:51;;;;;;;8.57;7.72;;;6.50;99.90;;;;;;5013847;28;20183;-66
2023/02/20 03:31:25;;;;;;;9.85;7.72;;;6.60;99.90;;;;;;5014108;28;20230;-66
2023/02/20 03:45:11;;;;;;;10.18;8.20;;;6.60;99.90;;;;;;5014155;28;20544;-66
2023/02/20 03:47:45;;;;;;;10.95;8.40;;;6.70;99.90;;;;;;5013996;28;20199;-67
2023/02/20 03:52:57;;;;;;;12.18;10.05;;;6.70;99.90;;;;;;5013724;28;20189;-66
2023/02/20 03:55:26;;;;;;;12.75;9.40;;;6.80;99.90;;;;;;5013775;28;20232;-67
2023/02/20 03:57:57;;;;;;;11.65;9.73;;;6.80;99.90;;;;;;5013378;28;20817;-67
2023/02/20 04:00:28;;;;;;;11.55;9.68;;;6.80;99.90;;;;;;5013560;28;20195;-66
2023/02/20 04:03:01;;;;;;;11.43;10.10;;;6.80;99.90;;;;;;5013419;28;20194;-66
2023/02/20 04:05:38;;;;;;;13.30;11.68;;;6.80;99.90;;;;;;5013586;28;20242;-67
2023/02/20 04:11:17;;;;;;;16.75;11.40;;;6.80;99.90;;;;;;5091317;28;20566;-66
2023/02/20 04:13:46;;;;;;;12.93;11.00;;;6.90;99.90;;;;;;5091288;28;20185;-66
2023/02/20 04:16:13;;;;;;;16.30;11.60;;;6.90;99.90;;;;;;5091138;28;20201;-66
2023/02/20 04:18:40;;;;;;;12.68;11.30;;;6.90;99.90;;;;;;5090843;28;20205;-66
2023/02/20 04:21:15;;;;;;;13.98;10.88;;;7.00;99.90;;;;;;5090686;28;20233;-66
2023/02/20 04:23:45;;;;;;;15.23;11.80;;;7.00;99.90;;;;;;5103056;28;20214;-66
2023/02/20 04:26:16;;;;;;;13.23;11.80;;;7.10;99.90;;;;;;5093421;28;20221;-67
2023/02/20 04:28:44;;;;;;;14.95;12.43;;;7.10;99.90;;;;;;5092911;28;20193;-67
2023/02/20 04:31:12;;;;;;;16.33;12.15;;;7.10;99.90;;;;;;5090564;28;20224;-67
2023/02/20 04:33:39;;;;;;;13.98;11.60;;;7.10;99.90;;;;;;5090422;28;20212;-67
2023/02/20 04:36:06;;;;;;;12.20;10.88;;;7.20;99.90;;;;;;5090494;28;20200;-67
2023/02/20 04:38:33;;;;;;;14.85;12.13;;;7.20;99.90;;;;;;5090367;28;20208;-66
2023/02/20 04:41:00;;;;;;;15.40;10.65;;;7.20;99.90;;;;;;5090359;28;20672;-66
2023/02/20 04:43:28;;;;;;;16.85;11.90;;;7.20;99.90;;;;;;5090119;28;20698;-67
2023/02/20 04:45:55;;;;;;;15.85;11.93;;;7.10;99.90;;;;;;5090219;28;20668;-65
2023/02/20 04:48:21;;;;;;;14.10;11.98;;;7.20;99.90;;;;;;5090388;28;20205;-64
2023/02/20 04:50:48;;;;;;;13.98;11.95;;;7.20;99.90;;;;;;5090356;28;20236;-66
2023/02/20 04:53:15;;;;;;;15.20;11.77;;;7.20;99.90;;;;;;5090432;28;20213;-66
2023/02/20 04:55:41;;;;;;;12.63;10.77;;;7.20;99.90;;;;;;5090418;28;20202;-66
2023/02/20 04:58:08;;;;;;;15.93;11.88;;;7.20;99.90;;;;;;5090215;28;20224;-66
2023/02/20 05:00:36;;;;;;;14.00;10.55;;;7.20;99.90;;;;;;5089724;28;20223;-65
2023/02/20 05:03:03;;;;;;;20.13;12.07;;;7.20;99.90;;;;;;5090109;28;20228;-67
2023/02/20 05:05:30;;;;;;;10.90;9.70;;;7.20;99.90;;;;;;5090110;28;20205;-66
2023/02/20 05:07:58;;;;;;;13.15;10.48;;;7.20;99.90;;;;;;5090079;28;20211;-65
2023/02/20 05:10:27;;;;;;;11.70;10.35;;;7.20;99.90;;;;;;5090434;28;20221;-67
2023/02/20 05:12:55;;;;;;;12.82;10.45;;;7.30;99.90;;;;;;5090434;28;20209;-67
2023/02/20 05:15:22;;;;;;;14.05;10.90;;;7.30;99.90;;;;;;5090168;28;20228;-67
2023/02/20 05:17:50;;;;;;;13.05;9.98;;;7.30;99.90;;;;;;5090222;28;20203;-66
2023/02/20 05:20:18;;;;;;;20.88;11.00;;;7.40;99.90;;;;;;5089513;28;20661;-66
2023/02/20 05:22:45;;;;;;;16.55;10.10;;;7.40;99.90;;;;;;5076105;28;20209;-66
2023/02/20 05:25:13;;;;;;;12.85;9.65;;;7.40;99.90;;;;;;5076188;28;20237;-66
2023/02/20 05:27:41;;;;;;;15.73;11.35;;;7.50;99.90;;;;;;5076168;28;20202;-66
2023/02/20 05:30:10;;;;;;;11.95;7.97;;;7.50;99.90;;;;;;5076114;28;20231;-66
2023/02/20 05:32:38;;;;;;;13.05;9.60;;;7.50;99.90;;;;;;5076660;28;20593;-67
2023/02/20 05:35:06;;;;;;;16.58;10.27;;;7.50;99.90;;;;;;5082070;28;20561;-66
2023/02/20 05:37:33;;;;;;;11.55;8.85;;;7.50;99.90;;;;;;5082744;28;20279;-66
2023/02/20 05:40:00;;;;;;;12.57;9.25;;;7.50;99.90;;;;;;5081497;28;20201;-66
2023/02/20 05:42:26;;;;;;;11.93;9.02;;;7.50;99.90;;;;;;5076817;28;20221;-67
2023/02/20 05:44:53;;;;;;;10.57;9.18;;;7.50;99.90;;;;;;5086102;28;20224;-67
2023/02/20 05:47:20;;;;;;;12.43;8.90;;;7.50;99.90;;;;;;5088585;28;20204;-66
2023/02/20 05:49:47;;;;;;;12.32;8.25;;;7.50;99.90;;;;;;5086835;28;20224;-67
2023/02/20 05:52:15;;;;;;;12.85;7.60;;;7.50;99.90;;;;;;5087289;28;20237;-66
2023/02/20 05:54:42;;;;;;;14.95;7.68;;;7.50;99.90;;;;;;5086690;28;20202;-66
2023/02/20 05:57:12;;;;;;;10.63;7.68;;;7.50;99.90;;;;;;5081775;28;20206;-66
2023/02/20 05:59:39;;;;;;;13.88;8.82;;;7.50;99.90;;;;;;5078538;28;20731;-67
2023/02/20 06:02:06;;;;;;;8.25;7.05;;;7.50;99.90;;;;;;5083844;28;20222;-66
2023/02/20 06:04:32;;;;;;;10.18;7.15;;;7.50;99.90;;;;;;5076817;28;20210;-66
2023/02/20 06:06:59;;;;;;;17.98;7.70;;;7.50;99.90;;;;;;5076195;28;20225;-66
2023/02/20 06:09:27;;;;;;;13.77;7.45;;;7.50;99.90;;;;;;5066591;28;20228;-66
2023/02/20 06:11:56;;;;;;;8.80;6.57;;;7.50;99.90;;;;;;5069649;28;20226;-66
2023/02/20 06:14:25;;;;;;;11.18;7.60;;;7.50;99.90;;;;;;5073572;28;20210;-66
2023/02/20 06:16:52;;;;;;;12.38;6.38;;;7.50;99.90;;;;;;5061820;28;20607;-66
2023/02/20 06:19:21;;;;;;;8.13;6.00;;;7.50;99.90;;;;;;5065813;28;20223;-65
2023/02/20 06:21:48;;;;;;;10.40;7.25;;;7.50;99.90;;;;;;5074603;28;20311;-66
2023/02/20 06:24:15;;;;;;;14.35;7.55;;;7.60;99.90;;;;;;5061269;28;20215;-66
2023/02/20 06:26:44;;;;;;;8.90;5.78;;;7.60;99.90;;;;;;5056602;28;20304;-66
2023/02/20 06:29:11;;;;;;;10.75;5.80;;;7.60;99.90;;;;;;5055086;28;20567;-67
2023/02/20 06:31:38;;;;;;;10.55;6.97;;;7.60;99.90;;;;;;5060368;28;20240;-67
2023/02/20 06:34:04;;;;;;;10.75;6.30;;;7.60;99.90;;;;;;5073612;28;20203;-67
2023/02/20 06:36:36;;;;;;;11.05;7.20;;;7.70;99.90;;;;;;5064518;28;20206;-67
2023/02/20 06:39:03;;;;;;;14.68;7.07;;;7.70;99.90;;;;;;5055282;28;20199;-67
2023/02/20 06:41:30;;;;;;;9.70;5.90;;;7.70;99.90;;;;;;5054703;28;20226;-67
2023/02/20 06:43:58;;;;;;;8.65;5.68;;;7.60;99.90;;;;;;5055373;28;20196;-66
2023/02/20 06:46:24;;;;;;;7.93;5.70;;;7.70;99.90;;;;;;5053853;28;20206;-66
2023/02/20 06:48:54;;;;;;;9.55;6.30;;;7.70;99.90;;;;;;5059424;28;20205;-67
2023/02/20 06:51:23;;;;;;;7.57;5.85;;;7.70;99.90;;;;;;5061007;28;20222;-66
2023/02/20 06:53:50;;;;;;;8.18;6.10;;;7.70;99.90;;;;;;5065118;28;20298;-66
2023/02/20 06:56:19;;;;;;;10.75;6.43;;;7.70;99.90;;;;;;5063149;28;20248;-66
2023/02/20 06:58:46;;;;;;;11.48;5.80;;;7.70;99.90;;;;;;5074123;28;20207;-67
2023/02/20 07:01:15;;;;;;;8.48;5.80;;;7.70;99.90;;;;;;5063661;28;20221;-67
2023/02/20 07:03:42;;;;;;;10.65;6.70;;;7.70;99.90;;;;;;5066170;28;20260;-66
2023/02/20 07:06:10;;;;;;;10.48;6.25;;;7.80;99.90;;;;;;5072653;28;20287;-66
2023/02/20 07:08:37;;;;;;;9.85;6.45;;;7.80;99.90;;;;;;5059802;28;20259;-67
2023/02/20 07:11:04;;;;;;;8.55;6.82;;;7.80;99.90;;;;;;5052860;28;20336;-67
2023/02/20 07:13:31;;;;;;;11.45;6.93;;;7.80;99.90;;;;;;5054200;28;20202;-66
2023/02/20 07:15:57;;;;;;;8.07;6.68;;;7.80;99.90;;;;;;5054067;28;20626;-66
2023/02/20 07:18:26;;;;;;;9.70;7.60;;;7.80;99.90;;;;;;5054225;28;20207;-66
2023/02/20 07:20:53;;;;;;;8.95;7.10;;;7.80;99.90;;;;;;5054158;28;20220;-67
2023/02/20 07:23:20;;;;;;;11.07;8.07;;;7.80;99.90;;;;;;5053954;28;20203;-66
2023/02/20 07:25:48;;;;;;;11.30;8.15;;;7.80;99.90;;;;;;5055562;28;20209;-67
2023/02/20 07:28:16;;;;;;;10.15;7.60;;;7.80;99.90;;;;;;5054156;28;20297;-67
2023/02/20 07:30:43;;;;;;;11.07;7.72;;;7.90;99.90;;;;;;5054809;28;20238;-65
2023/02/20 07:33:10;;;;;;;12.88;7.95;;;7.90;99.90;;;;;;5053980;28;20264;-67
2023/02/20 07:35:38;;;;;;;12.07;8.75;;;7.90;99.90;;;;;;5053784;28;20204;-67
2023/02/20 07:38:05;;;;;;;12.10;8.30;;;7.90;99.90;;;;;;5054493;28;20214;-65
2023/02/20 07:40:32;;;;;;;10.88;9.00;;;7.90;99.90;;;;;;5066734;28;20663;-67
2023/02/20 07:42:59;;;;;;;9.88;7.85;;;7.90;99.90;;;;;;5054158;28;20278;-66
2023/02/20 07:45:26;;;;;;;15.45;9.27;;;7.90;99.90;;;;;;5068663;28;20573;-66
2023/02/20 07:47:53;;;;;;;12.68;8.73;;;7.90;99.90;;;;;;5074490;28;20307;-67
2023/02/20 07:50:20;;;;;;;11.25;8.88;;;7.90;99.90;;;;;;5072798;28;20227;-66
2023/02/20 07:52:48;;;;;;;12.85;8.77;;;8.00;99.90;;;;;;5055054;28;20203;-67
2023/02/20 07:55:16;;;;;;;15.85;9.05;;;8.00;99.90;;;;;;5054764;28;20628;-66
2023/02/20 07:57:46;;;;;;;13.75;9.52;;;8.00;99.90;;;;;;5054886;28;20642;-68
2023/02/20 08:00:15;;;;;;;14.48;10.95;;;8.00;99.90;;;;;;5057822;28;20627;-65
2023/02/20 08:02:42;;;;;;;15.30;11.55;;;8.00;99.90;;;;;;5061684;28;20229;-66
2023/02/20 08:05:09;;;;;;;12.23;10.23;;;8.00;99.90;;;;;;5058599;28;20681;-66
2023/02/20 08:07:36;;;;;;;13.35;10.30;;;8.00;99.90;;;;;;5059151;28;20198;-67
2023/02/20 08:10:05;;;;;;;12.75;10.48;;;8.10;99.90;;;;;;5063390;28;20225;-65
2023/02/20 08:12:32;;;;;;;16.30;11.27;;;8.10;99.90;;;;;;5064127;28;20223;-66
2023/02/20 08:14:59;;;;;;;13.77;11.05;;;8.10;99.90;;;;;;5066715;28;20294;-65
2023/02/20 08:17:26;;;;;;;12.73;10.18;;;8.10;99.90;;;;;;5063110;28;20207;-65
2023/02/20 08:19:52;;;;;;;17.23;11.63;;;8.10;99.90;;;;;;5061500;28;20200;-65
2023/02/20 08:22:19;;;;;;;17.40;12.13;;;8.20;99.90;;;;;;5060992;28;20215;-64
2023/02/20 08:24:46;;;;;;;16.90;11.93;;;8.20;99.90;;;;;;5060352;28;20645;-63
2023/02/20 08:27:14;;;;;;;15.57;11.65;;;8.20;99.90;;;;;;5060647;28;20206;-66
2023/02/20 08:29:41;;;;;;;15.38;12.20;;;8.20;99.90;;;;;;5053547;28;20204;-67
2023/02/20 08:32:07;;;;;;;12.45;11.15;;;8.20;99.90;;;;;;5053648;28;20231;-67
2023/02/20 08:34:34;;;;;;;14.73;12.75;;;8.30;99.90;;;;;;5053385;28;20659;-65
2023/02/20 08:37:01;;;;;;;14.95;12.20;;;8.30;99.90;;;;;;5055111;28;20296;-66
2023/02/20 08:39:28;;;;;;;18.73;13.18;;;8.30;99.90;;;;;;5054180;28;20232;-67
2023/02/20 08:41:54;;;;;;;17.25;13.63;;;8.30;99.90;;;;;;5054154;28;20238;-66
2023/02/20 08:44:22;;;;;;;19.60;14.27;;;8.40;99.90;;;;;;5053541;28;20211;-64
2023/02/20 08:46:51;;;;;;;16.30;13.73;;;8.40;99.90;;;;;;5057163;28;20210;-65
2023/02/20 08:49:18;;;;;;;20.67;14.30;;;8.50;99.90;;;;;;5064753;28;20199;-64
2023/02/20 08:51:45;;;;;;;19.55;13.77;;;8.50;99.90;;;;;;5063195;28;20233;-65
2023/02/20 08:54:12;;;;;;;21.67;14.25;;;8.60;99.90;;;;;;5064502;28;20207;-65
2023/02/20 08:56:39;;;;;;;17.60;13.95;;;8.70;99.90;;;;;;5064473;28;20671;-65
2023/02/20 08:59:06;;;;;;;20.88;15.40;;;8.70;99.90;;;;;;5067149;28;20275;-63
2023/02/20 09:01:34;;;;;;;16.58;13.73;;;8.80;99.90;;;;;;5068775;28;20216;-65
2023/02/20 09:04:01;;;;;;;17.45;13.75;;;8.80;99.90;;;;;;5067968;28;20206;-66
2023/02/20 09:06:28;;;;;;;21.05;16.08;;;8.90;99.90;;;;;;5067192;28;20204;-65
2023/02/20 09:08:55;;;;;;;19.17;15.48;;;8.90;99.90;;;;;;5064004;28;20203;-65
2023/02/20 09:11:22;;;;;;;20.58;15.82;;;8.90;99.90;;;;;;5064214;28;20242;-65
2023/02/20 09:13:49;;;;;;;19.27;14.15;;;8.90;99.90;;;;;;5058995;28;20203;-64
2023/02/20 09:16:19;;;;;;;20.98;16.75;;;8.90;99.90;;;;;;5057385;28;20292;-65
2023/02/20 09:18:47;;;;;;;19.02;13.75;;;9.00;99.90;;;;;;5059854;28;20203;-64
2023/02/20 09:21:17;;;;;;;14.65;12.15;;;9.00;99.90;;;;;;5062211;28;20587;-64
2023/02/20 09:23:43;;;;;;;18.83;14.45;;;9.00;99.90;;;;;;5056715;28;20594;-64
2023/02/20 09:26:10;;;;;;;22.42;14.73;;;9.00;99.90;;;;;;5056318;28;20206;-65
2023/02/20 09:28:37;;;;;;;18.58;15.63;;;9.00;99.90;;;;;;5056107;28;20220;-65
2023/02/20 09:31:04;;;;;;;16.98;13.30;;;8.90;99.90;;;;;;5056204;28;20266;-65
2023/02/20 09:33:31;;;;;;;17.52;13.95;;;8.90;99.90;;;;;;5056180;28;20208;-67
2023/02/20 09:35:59;;;;;;;19.02;15.80;;;8.80;99.90;;;;;;5056045;28;20211;-67
2023/02/20 09:38:28;;;;;;;19.17;14.90;;;8.80;99.90;;;;;;5056255;28;20213;-65
2023/02/20 09:40:58;;;;;;;20.48;15.68;;;8.80;99.90;;;;;;5055438;28;20220;-67
2023/02/20 09:43:38;;;;;;;18.05;14.40;;;8.80;99.90;;;;;;5056740;28;20206;-66
2023/02/20 09:46:10;;;;;;;18.50;15.02;;;8.80;99.90;;;;;;5056024;28;20187;-64
2023/02/20 09:48:54;;;;;;;20.30;14.40;;;8.80;99.90;;;;;;5055947;28;20231;-64
2023/02/20 09:51:24;;;;;;;21.13;14.13;;;8.80;99.90;;;;;;5055981;28;20232;-64
2023/02/20 09:53:56;;;;;;;18.00;14.23;;;8.80;99.90;;;;;;5055775;28;20203;-65
2023/02/20 09:56:29;;;;;;;19.30;14.55;;;8.80;99.90;;;;;;5056127;28;20183;-65
2023/02/20 09:59:02;;;;;;;21.90;16.33;;;8.90;99.90;;;;;;5056139;28;20200;-66
2023/02/20 10:01:30;;;;;;;18.10;14.23;;;8.90;99.90;;;;;;5056623;28;20310;-67
2023/02/20 10:03:59;;;;;;;19.90;15.32;;;8.90;99.90;;;;;;5055964;28;20208;-67
2023/02/20 10:06:30;;;;;;;21.15;14.55;;;8.90;99.90;;;;;;5056221;28;20214;-68
2023/02/20 10:08:57;;;;;;;19.35;14.90;;;8.90;99.90;;;;;;5056077;28;20206;-66
2023/02/20 10:11:50;;;;;;;19.40;13.55;;;8.90;99.90;;;;;;5056242;28;20235;-69
2023/02/20 10:14:33;;;;;;;16.17;13.68;;;8.90;99.90;;;;;;5050480;28;20199;-67
2023/02/20 10:17:10;;;;;;;18.38;13.13;;;8.80;99.90;;;;;;5055868;28;20201;-67
2023/02/20 10:19:48;;;;;;;19.85;14.38;;;8.80;99.90;;;;;;5055497;28;20200;-67
2023/02/20 10:22:21;;;;;;;17.60;13.80;;;8.80;99.90;;;;;;5055661;28;20224;-65
2023/02/20 10:25:08;;;;;;;16.73;13.35;;;8.80;99.90;;;;;;5059641;22;20228;-67
2023/02/20 10:27:46;;;;;;;20.63;14.77;;;8.80;99.90;;;;;;5035568;28;20567;-65
2023/02/20 10:30:19;;;;;;;16.58;13.70;;;8.80;99.90;;;;;;5035423;28;20193;-66
2023/02/20 10:32:52;;;;;;;22.25;15.63;;;8.80;99.90;;;;;;5035069;28;20213;-68
2023/02/20 10:35:23;;;;;;;16.50;13.65;;;8.80;99.90;;;;;;5034856;28;20224;-67
2023/02/20 10:37:55;;;;;;;18.27;12.52;;;8.80;99.90;;;;;;5034992;28;20197;-66
2023/02/20 10:40:27;;;;;;;20.95;14.27;;;8.80;99.90;;;;;;5035223;28;20288;-68
2023/02/20 10:43:02;;;;;;;17.77;13.15;;;8.80;99.90;;;;;;5035523;28;20193;-67
2023/02/20 10:45:39;;;;;;;18.40;14.77;;;8.80;99.90;;;;;;5035066;28;20315;-69
2023/02/20 10:48:07;;;;;;;20.50;13.43;;;8.80;99.90;;;;;;5035305;28;20283;-68
2023/02/20 10:50:40;;;;;;;20.80;14.27;;;8.80;99.90;;;;;;5035167;28;20208;-69
2023/02/20 10:53:25;;;;;;;25.65;16.58;;;8.80;99.90;;;;;;5035877;28;20219;-69
2023/02/20 10:55:58;;;;;;;19.63;15.32;;;8.80;99.90;;;;;;5035760;28;20535;-68
2023/02/20 10:58:31;;;;;;;18.95;14.05;;;8.80;99.90;;;;;;5035197;28;20618;-69
2023/02/20 11:01:02;;;;;;;21.33;13.93;;;8.80;99.90;;;;;;5034825;28;20188;-68
2023/02/20 11:03:39;;;;;;;19.27;13.63;;;8.70;99.90;;;;;;5034877;28;20204;-68
2023/02/20 11:06:09;;;;;;;22.63;15.18;;;8.70;99.90;;;;;;5034623;28;20184;-69
2023/02/20 11:08:37;;;;;;;22.70;15.88;;;8.70;99.90;;;;;;5034374;28;20295;-69
2023/02/20 11:11:20;;;;;;;29.85;16.85;;;8.70;99.90;;;;;;5034419;28;20200;-69
2023/02/20 11:13:47;;;;;;;23.00;16.45;;;8.60;99.90;;;;;;5034780;28;20224;-68
2023/02/20 11:16:22;;;;;;;26.20;16.40;;;8.60;99.90;;;;;;5031603;28;20200;-68
2023/02/20 11:18:53;;;;;;;27.83;18.02;;;8.60;99.90;;;;;;5048587;28;20192;-67
2023/02/20 11:21:35;;;;;;;27.40;16.70;;;8.60;99.90;;;;;;5043169;28;20199;-68
2023/02/20 11:24:18;;;;;;;27.30;17.92;;;8.50;99.90;;;;;;5033417;28;20255;-66
2023/02/20 11:26:48;;;;;;;24.70;17.15;;;8.50;99.90;;;;;;5039700;28;20572;-68
2023/02/20 11:29:17;;;;;;;23.83;16.02;;;8.50;99.90;;;;;;5046962;28;20640;-69
2023/02/20 11:31:46;;;;;;;25.55;17.70;;;8.50;99.90;;;;;;5053457;28;20448;-69
2023/02/20 11:34:17;;;;;;;21.90;17.90;;;8.50;99.90;;;;;;5053623;28;20595;-70
2023/02/20 11:36:46;;;;;;;23.65;16.75;;;8.50;99.90;;;;;;5041712;28;20250;-69
2023/02/20 11:39:25;;;;;;;25.90;16.67;;;8.60;99.90;;;;;;5034121;28;20204;-69
2023/02/20 11:42:07;;;;;;;25.58;16.90;;;8.60;99.90;;;;;;5033966;28;20187;-69
2023/02/20 11:44:34;;;;;;;26.08;16.35;;;8.60;99.90;;;;;;5033922;28;20329;-68
2023/02/20 11:47:22;;;;;;;23.77;16.27;;;8.70;99.90;;;;;;5033473;28;20213;-69
2023/02/20 11:49:49;;;;;;;23.77;15.50;;;8.60;99.90;;;;;;5028287;28;20200;-69
2023/02/20 11:52:20;;;;;;;24.20;16.48;;;8.70;99.90;;;;;;5031912;28;20336;-69
2023/02/20 11:55:08;;;;;;;21.20;15.38;;;8.60;99.90;;;;;;5045732;28;20236;-70
2023/02/20 11:57:42;;;;;;;25.30;15.27;;;8.70;99.90;;;;;;5030590;28;20733;-68
2023/02/20 12:00:13;;;;;;;19.42;13.88;;;8.70;99.90;;;;;;5052522;28;20198;-68
2023/02/20 12:02:49;;;;;;;23.70;17.00;;;8.70;99.90;;;;;;5046440;28;20196;-70
2023/02/20 12:05:17;;;;;;;29.35;17.83;;;8.70;99.90;;;;;;5015304;28;20271;-69
2023/02/20 12:07:45;;;;;;;24.38;18.25;;;8.70;99.90;;;;;;5015799;28;20533;-69
2023/02/20 12:10:33;;;;;;;25.50;16.73;;;8.70;99.90;;;;;;5015491;28;20237;-68
2023/02/20 12:13:00;;;;;;;28.40;16.75;;;8.70;99.90;;;;;;5015837;28;20602;-70
2023/02/20 12:15:29;;;;;;;25.55;17.75;;;8.70;99.90;;;;;;5015218;28;20315;-67
2023/02/20 12:18:25;;;;;;;27.95;17.13;;;8.70;99.90;;;;;;5015522;28;20207;-69
2023/02/20 12:20:58;;;;;;;23.90;16.80;;;8.70;99.90;;;;;;5002841;28;20204;-69
2023/02/20 12:23:33;;;;;;;22.33;16.35;;;8.60;99.90;;;;;;5015744;28;20223;-70
2023/02/20 12:26:26;;;;;;;21.77;15.30;;;8.60;99.90;;;;;;5014492;28;20189;-67
2023/02/20 12:29:05;;;;;;;24.58;15.07;;;8.60;99.90;;;;;;5017859;28;20201;-68
2023/02/20 12:31:50;;;;;;;24.17;15.63;;;8.60;99.90;;;;;;5020494;28;20221;-69
2023/02/20 12:34:47;;;;;;;23.67;16.27;;;8.60;99.90;;;;;;5019208;28;20231;-69
2023/02/20 12:37:24;;;;;;;21.73;15.88;;;8.60;99.90;;;;;;5019316;28;20196;-69
2023/02/20 12:40:02;;;;;;;24.77;16.00;;;8.50;99.90;;;;;;5018350;28;20273;-68
2023/02/20 12:42:38;;;;;;;21.33;15.52;;;8.60;99.90;;;;;;5019103;28;20188;-69
2023/02/20 12:45:21;;;;;;;24.45;16.00;;;8.50;99.90;;;;;;5018533;28;20227;-68
2023/02/20 12:48:00;;;;;;;28.95;16.42;;;8.50;99.90;;;;;;5018626;28;20709;-68
2023/02/20 12:50:48;;;;;;;21.25;12.93;;;8.40;99.90;;;;;;5019352;28;20196;-68
2023/02/20 12:53:25;;;;;;;23.20;13.43;;;8.40;99.90;;;;;;5019510;28;20235;-69
2023/02/20 12:56:02;;;;;;;20.83;15.35;;;8.40;99.90;;;;;;5019262;28;20243;-68
2023/02/20 12:58:38;;;;;;;22.05;11.65;;;8.30;99.90;;;;;;5019278;28;20627;-69
2023/02/20 13:01:07;;;;;;;20.60;13.52;;;8.30;99.90;;;;;;5019228;28;20734;-68
2023/02/20 13:03:43;;;;;;;16.00;10.85;;;8.30;99.90;;;;;;5018518;28;20201;-69
2023/02/20 13:06:13;;;;;;;15.85;11.07;;;8.20;99.90;;;;;;5019921;28;20186;-69
2023/02/20 13:08:54;;;;;;;19.30;12.30;;;8.20;99.90;;;;;;5020137;28;20282;-68
2023/02/20 13:11:24;;;;;;;25.20;11.90;;;8.10;99.90;;;;;;5020931;28;20611;-68
2023/02/20 13:14:06;;;;;;;27.17;14.52;;;8.10;99.90;;;;;;5020292;28;20229;-68
2023/02/20 13:16:40;;;;;;;22.58;13.02;;;8.10;99.90;;;;;;5020072;28;20192;-69
2023/02/20 13:19:21;;;;;;;20.70;12.38;;;8.10;99.90;;;;;;5020293;28;20221;-66
2023/02/20 13:21:48;;;;;;;22.70;12.63;;;8.10;99.90;;;;;;5019999;28;20185;-68
2023/02/20 13:24:29;;;;;;;22.17;12.40;;;8.10;99.90;;;;;;5018233;28;20229;-69